Time;durP1;ratioP1;P1;durP2;ratioP2;P2;SDS_P1;SDS_P2;PMS_P1;PMS_P2;Temp;Humidity;BMP_temperature;BMP_pressure;BME280_temperature;BME280_humidity;BME280_pressure;Samples;Min_cycle;Max_cycle;Signal;HPM_P1;HPM_P2
2023/06/04 00:01:36;;;;;;;0.70;0.70;;;;;;;9.19;75.51;100698.94;10251075;29;20039;-83
2023/06/04 00:06:39;;;;;;;1.05;0.70;;;;;;;9.15;75.47;100689.63;10247715;29;20542;-82
2023/06/04 00:11:41;;;;;;;1.95;0.90;;;;;;;9.17;75.72;100679.22;10267889;29;20511;-83
2023/06/04 00:16:43;;;;;;;0.82;0.80;;;;;;;9.14;74.59;100670.72;10264575;29;20050;-86
2023/06/04 00:21:46;;;;;;;0.68;0.68;;;;;;;9.15;74.49;100675.94;10216084;29;20051;-83
2023/06/04 00:26:48;;;;;;;1.92;0.63;;;;;;;9.10;73.77;100675.94;10267455;29;20579;-83
2023/06/04 00:31:53;;;;;;;0.88;0.60;;;;;;;9.07;72.90;100679.22;10267395;29;20039;-84
2023/06/04 00:36:55;;;;;;;1.63;0.88;;;;;;;9.09;71.95;100684.41;10267161;29;20047;-84
2023/06/04 00:41:58;;;;;;;1.08;0.70;;;;;;;9.13;72.14;100677.28;10265246;29;20558;-85
2023/06/04 00:47:00;;;;;;;0.95;0.60;;;;;;;9.07;71.80;100668.25;10235838;29;20053;-86
2023/06/04 00:52:03;;;;;;;0.60;0.50;;;;;;;9.03;71.94;100664.44;10235481;29;20055;-84
2023/06/04 00:57:06;;;;;;;1.15;0.68;;;;;;;9.04;71.61;100664.16;10251178;29;20397;-84
2023/06/04 01:02:13;;;;;;;0.90;0.52;;;;;;;9.01;71.47;100652.91;10230371;29;20058;-85
2023/06/04 01:07:17;;;;;;;0.93;0.70;;;;;;;9.04;72.07;100657.84;10250587;29;20058;-83
2023/06/04 01:12:19;;;;;;;2.60;0.80;;;;;;;9.05;72.01;100659.50;10249563;28;20035;-86
2023/06/04 01:17:28;;;;;;;0.93;0.65;;;;;;;9.10;71.84;100648.56;10250786;29;20047;-86
2023/06/04 01:22:42;;;;;;;0.70;0.63;;;;;;;9.10;72.17;100643.06;10200518;29;20063;-82
2023/06/04 01:27:50;;;;;;;2.38;0.57;;;;;;;9.07;72.28;100629.94;10249240;29;20127;-83
2023/06/04 01:32:54;;;;;;;1.40;0.80;;;;;;;9.12;72.62;100638.16;10256116;29;20047;-85
2023/06/04 01:37:56;;;;;;;1.63;0.65;;;;;;;9.10;73.03;100645.81;10248972;29;20062;-84
2023/06/04 01:42:59;;;;;;;1.88;1.00;;;;;;;9.12;73.51;100643.63;10241214;29;20046;-83
2023/06/04 01:48:03;;;;;;;2.20;0.70;;;;;;;9.13;73.64;100647.19;10225544;29;20039;-84
2023/06/04 01:53:06;;;;;;;2.47;0.80;;;;;;;8.96;77.44;100656.47;10226011;29;20634;-83
2023/06/04 01:58:09;;;;;;;2.10;0.82;;;;;;;8.63;79.75;100660.44;10210053;29;20043;-86
2023/06/04 02:03:12;;;;;;;1.98;0.68;;;;;;;8.40;82.30;100663.66;10213831;29;20046;-84
2023/06/04 02:08:18;;;;;;;1.98;0.70;;;;;;;8.28;83.61;100660.25;10225818;29;20417;-82
2023/06/04 02:13:21;;;;;;;1.45;0.90;;;;;;;8.19;84.64;100661.88;10225819;29;20503;-84
2023/06/04 02:18:24;;;;;;;1.85;1.00;;;;;;;8.17;85.89;100667.59;10240376;29;20428;-85
2023/06/04 02:23:26;;;;;;;2.28;0.85;;;;;;;8.23;86.91;100669.25;10266790;28;20043;-84
2023/06/04 02:28:30;;;;;;;1.83;0.82;;;;;;;8.17;87.78;100678.53;10272422;29;20046;-81
2023/06/04 02:33:33;;;;;;;1.00;0.80;;;;;;;8.11;87.94;100674.09;10272835;29;20042;-83
2023/06/04 02:38:35;;;;;;;0.75;0.70;;;;;;;8.16;87.80;100657.75;10292490;29;20047;-85
2023/06/04 02:43:37;;;;;;;1.48;0.70;;;;;;;8.20;88.30;100660.78;10255675;29;20039;-82
2023/06/04 02:48:40;;;;;;;1.00;0.65;;;;;;;8.16;88.57;100657.75;10221677;29;20039;-85
2023/06/04 02:53:42;;;;;;;0.95;0.70;;;;;;;8.11;88.87;100655.78;10231593;29;20063;-85
2023/06/04 02:58:52;;;;;;;1.17;0.70;;;;;;;8.07;88.61;100653.84;10215272;29;20046;-85
2023/06/04 03:03:55;;;;;;;1.17;0.82;;;;;;;8.08;88.38;100648.13;10215864;29;20039;-85
2023/06/04 03:08:57;;;;;;;1.45;0.93;;;;;;;8.05;88.88;100637.72;10270586;29;20050;-85
2023/06/04 03:13:59;;;;;;;1.50;0.80;;;;;;;8.02;89.01;100630.06;10270063;29;20035;-84
2023/06/04 03:19:02;;;;;;;0.88;0.60;;;;;;;8.11;88.94;100631.19;10218147;29;20048;-83
2023/06/04 03:24:04;;;;;;;0.60;0.60;;;;;;;8.07;88.67;100627.34;10202447;29;20412;-85
2023/06/04 03:29:06;;;;;;;0.60;0.60;;;;;;;8.06;88.01;100625.72;10253123;29;20050;-86
2023/06/04 03:34:09;;;;;;;0.60;0.60;;;;;;;8.00;87.13;100626.78;10251600;29;20035;-83
2023/06/04 03:39:11;;;;;;;1.45;0.65;;;;;;;7.96;85.78;100624.81;10267659;29;20054;-84
2023/06/04 03:44:17;;;;;;;1.48;0.63;;;;;;;7.95;85.47;100621.25;10278629;29;20039;-84
2023/06/04 03:49:21;;;;;;;1.15;0.68;;;;;;;8.06;85.42;100620.25;10213092;29;20058;-84
2023/06/04 03:54:25;;;;;;;0.85;0.55;;;;;;;7.98;85.25;100628.09;10213883;29;20386;-87
2023/06/04 03:59:28;;;;;;;0.88;0.57;;;;;;;8.00;85.65;100626.78;10232144;29;20032;-84
2023/06/04 04:04:30;;;;;;;1.77;0.75;;;;;;;8.07;85.53;100627.34;10245426;29;20043;-84
2023/06/04 04:09:34;;;;;;;1.42;0.65;;;;;;;8.06;84.90;100628.44;10236975;29;20053;-87
2023/06/04 04:14:36;;;;;;;1.70;0.60;;;;;;;8.06;84.62;100614.78;10252264;29;20047;-85
2023/06/04 04:19:39;;;;;;;1.00;0.68;;;;;;;7.96;84.80;100625.63;10247631;29;20055;-84
2023/06/04 04:24:42;;;;;;;2.92;0.70;;;;;;;7.92;85.65;100637.38;10212691;29;20515;-85
2023/06/04 04:29:47;;;;;;;1.67;0.80;;;;;;;7.90;86.10;100626.69;10228775;29;20050;-85
2023/06/04 04:34:51;;;;;;;1.08;0.70;;;;;;;7.91;86.74;100622.06;10227488;29;20044;-87
2023/06/04 04:39:56;;;;;;;1.45;0.77;;;;;;;8.04;88.13;100621.59;10251479;29;20044;-84
2023/06/04 04:45:00;;;;;;;1.10;0.70;;;;;;;8.12;88.80;100638.31;10251850;29;20039;-85
2023/06/04 04:50:05;;;;;;;1.10;0.73;;;;;;;8.08;88.83;100618.06;10251023;29;20199;-84
2023/06/04 04:55:08;;;;;;;1.73;0.80;;;;;;;8.04;89.76;100616.13;10250210;29;20065;-84
2023/06/04 05:00:12;;;;;;;1.48;0.77;;;;;;;8.01;90.86;100617.50;10223880;29;20058;-84
2023/06/04 05:05:18;;;;;;;0.70;0.70;;;;;;;8.05;91.14;100621.34;10220471;29;20390;-86
2023/06/04 05:10:22;;;;;;;0.82;0.68;;;;;;;8.04;91.96;100614.22;10255572;29;20043;-84
2023/06/04 05:15:26;;;;;;;0.80;0.68;;;;;;;7.99;92.93;100625.13;10227138;29;20054;-87
2023/06/04 05:20:30;;;;;;;1.02;0.68;;;;;;;7.98;93.50;100618.00;10239920;29;20043;-84
2023/06/04 05:25:32;;;;;;;1.33;0.70;;;;;;;8.12;93.94;100601.94;10210641;29;20383;-85
2023/06/04 05:30:41;;;;;;;0.80;0.57;;;;;;;8.06;94.36;100620.25;10247902;29;20393;-86
2023/06/04 05:35:51;;;;;;;1.58;0.90;;;;;;;8.05;94.78;100624.06;10248264;29;20066;-85
2023/06/04 05:40:55;;;;;;;2.03;1.08;;;;;;;8.23;94.42;100616.50;10233813;29;20040;-83
2023/06/04 05:45:59;;;;;;;1.63;0.90;;;;;;;8.61;94.22;100610.66;10210003;29;20062;-83
2023/06/04 05:51:01;;;;;;;2.50;1.10;;;;;;;9.16;94.23;100617.34;10237525;29;20051;-84
2023/06/04 05:56:03;;;;;;;1.48;1.10;;;;;;;9.47;93.26;100614.63;10249103;29;20039;-87
2023/06/04 06:01:06;;;;;;;3.45;1.27;;;;;;;10.38;91.74;100617.19;10253632;29;20043;-85
2023/06/04 06:06:10;;;;;;;1.05;0.80;;;;;;;11.54;87.52;100601.09;10271988;29;20035;-84
2023/06/04 06:11:13;;;;;;;1.25;0.90;;;;;;;11.95;82.27;100606.22;10273631;29;20035;-86
2023/06/04 06:16:16;;;;;;;1.88;0.98;;;;;;;12.78;79.67;100600.25;10288392;29;20413;-86
2023/06/04 06:21:20;;;;;;;1.63;1.05;;;;;;;13.60;75.41;100596.25;10286791;29;20043;-86
2023/06/04 06:26:24;;;;;;;0.90;0.80;;;;;;;13.23;73.61;100597.97;10211345;29;20031;-86
2023/06/04 06:31:29;;;;;;;1.67;0.95;;;;;;;12.53;73.31;100601.44;10233065;29;20050;-84
2023/06/04 06:36:32;;;;;;;1.98;1.30;;;;;;;11.81;75.20;100608.03;10254434;29;20072;-85
2023/06/04 06:41:34;;;;;;;1.58;1.25;;;;;;;11.41;76.01;100623.72;10267795;29;20066;-85
2023/06/04 06:46:38;;;;;;;1.67;1.33;;;;;;;11.14;77.42;100619.53;10231608;29;20039;-84
2023/06/04 06:51:40;;;;;;;2.38;1.30;;;;;;;11.06;78.84;100625.63;10252334;29;20051;-83
2023/06/04 06:56:42;;;;;;;1.13;0.82;;;;;;;11.08;79.89;100630.84;10271048;29;20046;-84
2023/06/04 07:01:45;;;;;;;2.10;1.40;;;;;;;10.97;79.79;100624.59;10242264;29;20058;-85
2023/06/04 07:06:47;;;;;;;1.30;0.88;;;;;;;11.06;80.13;100627.56;10230961;29;20044;-86
2023/06/04 07:11:49;;;;;;;1.60;1.13;;;;;;;11.12;79.89;100621.75;10230983;29;20417;-82
2023/06/04 07:16:51;;;;;;;2.03;0.98;;;;;;;11.22;80.89;100620.03;10249664;28;20039;-85
2023/06/04 07:21:54;;;;;;;2.83;1.20;;;;;;;11.21;80.76;100629.38;10303070;28;20047;-87
2023/06/04 07:26:57;;;;;;;0.95;0.95;;;;;;;11.22;79.44;100631.03;10257566;29;20051;-88
2023/06/04 07:32:00;;;;;;;2.35;1.30;;;;;;;11.27;78.59;100634.53;10224858;29;20059;-86
2023/06/04 07:37:03;;;;;;;1.30;1.10;;;;;;;11.21;77.69;100629.38;10252499;29;20050;-84
2023/06/04 07:42:07;;;;;;;1.13;0.80;;;;;;;12.20;75.67;100630.72;10253228;29;20420;-88
2023/06/04 07:47:09;;;;;;;4.13;1.00;;;;;;;12.88;72.46;100629.59;10272020;28;20039;-88
2023/06/04 07:52:11;;;;;;;1.02;0.70;;;;;;;12.89;70.86;100632.03;10238538;29;20059;-85
2023/06/04 07:57:13;;;;;;;2.25;1.02;;;;;;;12.52;71.77;100645.75;10268610;29;20413;-87
2023/06/04 08:02:16;;;;;;;0.82;0.80;;;;;;;12.93;70.43;100630.34;10284978;28;20038;-85
2023/06/04 08:07:18;;;;;;;1.35;0.80;;;;;;;12.98;68.98;100646.78;10313814;28;20047;-85
2023/06/04 08:12:21;;;;;;;0.82;0.80;;;;;;;12.50;69.65;100643.31;10276770;28;20050;-86
2023/06/04 08:17:23;;;;;;;2.38;0.90;;;;;;;12.30;70.44;100658.09;10279794;28;20054;-86
2023/06/04 08:22:32;;;;;;;1.98;0.60;;;;;;;12.25;70.18;100657.34;10294735;28;20042;-89
2023/06/04 08:27:55;;;;;;;2.72;1.00;;;;;;;12.58;69.68;100655.59;10311554;28;20105;-85
2023/06/04 08:33:17;;;;;;;1.83;1.05;;;;;;;13.05;67.97;100653.88;10284376;29;20054;-88
2023/06/04 08:38:23;;;;;;;1.08;1.00;;;;;;;13.02;67.75;100662.75;10277827;29;20534;-84
2023/06/04 08:43:25;;;;;;;1.48;1.10;;;;;;;13.10;68.12;100662.88;10254191;29;20047;-88
2023/06/04 08:48:28;;;;;;;0.75;0.73;;;;;;;12.96;69.56;100671.03;10241164;29;20043;-86
2023/06/04 08:53:30;;;;;;;1.73;1.05;;;;;;;13.20;70.33;100670.22;10272908;29;20055;-87
2023/06/04 08:58:40;;;;;;;1.80;1.25;;;;;;;13.34;69.49;100665.56;10252612;29;20047;-86
2023/06/04 09:03:42;;;;;;;;;;;;;;;13.36;68.08;100663.34;10268797;29;20039;-87
2023/06/04 09:08:45;;;;;;;1.38;0.77;;;;;;;14.15;65.87;100650.41;10236827;29;19918;-89
2023/06/04 09:13:47;;;;;;;2.35;0.88;;;;;;;14.96;62.55;100641.63;10317253;28;20049;-87
2023/06/04 09:18:50;;;;;;;1.00;1.00;;;;;;;15.17;60.00;100639.19;10310024;28;20050;-87
2023/06/04 09:23:58;;;;;;;1.95;0.90;;;;;;;14.65;60.61;100660.78;10260107;28;20031;-85
2023/06/04 09:29:05;;;;;;;1.25;0.80;;;;;;;14.14;61.30;100654.28;10252406;29;20058;-87
2023/06/04 09:34:08;;;;;;;1.58;0.80;;;;;;;14.15;62.83;100650.41;10265330;28;20039;-85
2023/06/04 09:39:16;;;;;;;1.83;0.98;;;;;;;13.95;63.14;100658.25;10251879;29;20055;-86
2023/06/04 09:44:19;;;;;;;2.40;0.80;;;;;;;13.51;63.94;100660.34;10211106;29;20039;-87
2023/06/04 09:49:21;;;;;;;1.60;0.93;;;;;;;13.63;64.49;100659.88;10237014;29;20046;-85
2023/06/04 09:54:35;;;;;;;4.35;0.90;;;;;;;13.80;64.08;100668.41;10240233;29;20070;-86
2023/06/04 09:59:45;;;;;;;1.70;1.00;;;;;;;13.69;63.86;100655.09;10270320;29;20051;-87
2023/06/04 10:04:58;;;;;;;1.02;0.80;;;;;;;13.34;63.86;100668.31;10243171;29;20039;-88
2023/06/04 10:10:01;;;;;;;1.00;0.90;;;;;;;13.28;63.99;100661.25;10278792;28;20102;-89
2023/06/04 10:15:12;;;;;;;1.63;0.98;;;;;;;13.38;64.62;100665.81;10275016;28;20050;-87
2023/06/04 10:20:14;;;;;;;0.93;0.80;;;;;;;13.40;64.03;100667.16;10270463;28;20134;-85
2023/06/04 10:25:18;;;;;;;0.77;0.77;;;;;;;13.45;63.89;100660.72;10271168;29;20049;-86
2023/06/04 10:30:20;;;;;;;1.05;0.93;;;;;;;13.51;64.26;100668.59;10258015;29;20424;-85
2023/06/04 10:35:33;;;;;;;1.38;0.98;;;;;;;13.30;64.07;100669.22;10271822;29;20043;-84
2023/06/04 10:40:36;;;;;;;1.65;1.33;;;;;;;13.20;65.15;100672.97;10276516;29;20054;-86
2023/06/04 10:45:40;;;;;;;3.45;1.58;;;;;;;13.46;65.82;100676.97;10245247;28;20055;-84
2023/06/04 10:50:52;;;;;;;1.63;1.30;;;;;;;13.80;63.72;100675.88;10260188;29;20067;-86
2023/06/04 10:55:54;;;;;;;2.30;1.38;;;;;;;13.89;62.56;100676.84;10242429;29;20043;-86
2023/06/04 11:00:57;;;;;;;3.78;1.88;;;;;;;13.92;62.43;100691.97;10267245;28;20408;-86
2023/06/04 11:05:59;;;;;;;1.38;1.20;;;;;;;13.99;62.30;100676.63;10276930;28;20058;-85
2023/06/04 11:11:12;;;;;;;2.40;1.30;;;;;;;14.13;62.04;100683.00;10227199;29;20048;-87
2023/06/04 11:16:16;;;;;;;1.42;1.02;;;;;;;13.91;60.94;100685.63;10268489;28;20047;-84
2023/06/04 11:21:20;;;;;;;2.33;1.27;;;;;;;13.95;61.22;100692.16;10237765;28;20632;-84
2023/06/04 11:26:24;;;;;;;2.33;1.10;;;;;;;14.23;60.21;100697.72;10254698;28;20035;-85
2023/06/04 11:31:27;;;;;;;1.00;0.90;;;;;;;14.24;59.61;100696.63;10236462;28;20047;-86
2023/06/04 11:36:30;;;;;;;1.73;1.20;;;;;;;14.40;59.02;100697.97;10265939;28;20031;-87
2023/06/04 11:41:35;;;;;;;1.58;1.13;;;;;;;14.26;58.17;100705.44;10254929;29;20088;-87
2023/06/04 11:46:44;;;;;;;1.50;1.10;;;;;;;14.09;58.89;100706.00;10255347;29;20051;-85
2023/06/04 11:51:47;;;;;;;1.58;0.93;;;;;;;14.07;58.07;100705.50;10263646;29;20047;-85
2023/06/04 11:56:50;;;;;;;1.30;0.80;;;;;;;14.10;58.07;100711.22;10238794;28;20043;-85
2023/06/04 12:01:53;;;;;;;1.52;0.77;;;;;;;14.04;57.90;100706.88;10240331;28;20042;-87
2023/06/04 12:07:04;;;;;;;1.80;0.88;;;;;;;14.15;57.94;100718.59;10238301;29;20047;-83
2023/06/04 12:12:07;;;;;;;1.17;0.77;;;;;;;14.21;58.65;100722.88;10269159;29;20035;-87
2023/06/04 12:17:10;;;;;;;1.40;0.95;;;;;;;14.03;57.41;100721.81;10237019;28;20417;-83
2023/06/04 12:22:13;;;;;;;1.55;0.90;;;;;;;13.95;57.10;100721.69;10266764;28;20495;-83
2023/06/04 12:27:15;;;;;;;1.25;0.90;;;;;;;13.98;57.38;100730.19;10252049;28;20027;-87
2023/06/04 12:32:18;;;;;;;0.80;0.80;;;;;;;14.07;58.18;100733.09;10265885;28;20039;-85
2023/06/04 12:37:22;;;;;;;1.83;0.80;;;;;;;14.08;58.40;100732.78;10264587;28;20039;-87
2023/06/04 12:42:27;;;;;;;1.15;0.90;;;;;;;13.99;58.63;100736.53;10265065;28;20527;-84
2023/06/04 12:47:30;;;;;;;0.85;0.70;;;;;;;14.02;58.09;100730.38;10263306;28;20035;-85
2023/06/04 12:52:33;;;;;;;1.30;0.90;;;;;;;14.07;57.60;100722.03;10265025;28;20866;-87
2023/06/04 12:57:35;;;;;;;0.85;0.60;;;;;;;14.28;56.53;100722.50;10264637;28;20042;-85
2023/06/04 13:02:39;;;;;;;1.05;0.70;;;;;;;14.19;55.82;100738.94;10248057;28;20125;-87
2023/06/04 13:07:42;;;;;;;1.70;1.00;;;;;;;14.10;55.02;100733.28;10288782;28;20038;-87
2023/06/04 13:12:45;;;;;;;2.03;0.65;;;;;;;14.08;56.30;100734.72;10285572;28;20066;-86
2023/06/04 13:17:47;;;;;;;3.00;0.70;;;;;;;14.05;55.24;100746.34;10271768;28;20047;-86
2023/06/04 13:22:50;;;;;;;0.40;0.40;;;;;;;14.00;55.16;100747.25;10302193;28;20050;-86
2023/06/04 13:27:52;;;;;;;1.77;0.50;;;;;;;13.96;55.25;100746.22;10287179;28;20054;-84
2023/06/04 13:32:54;;;;;;;0.70;0.60;;;;;;;13.93;55.60;100755.09;10274494;28;20055;-86
2023/06/04 13:37:59;;;;;;;0.57;0.57;;;;;;;13.88;55.96;100755.16;10296296;28;20034;-82
2023/06/04 13:43:02;;;;;;;0.65;0.52;;;;;;;13.88;55.80;100756.00;10312346;28;20111;-81
2023/06/04 13:48:06;;;;;;;0.90;0.80;;;;;;;13.98;55.36;100762.47;10279381;28;20050;-87
2023/06/04 13:53:09;;;;;;;1.10;0.70;;;;;;;13.93;55.80;100773.59;10264017;28;20054;-86
2023/06/04 13:58:11;;;;;;;1.15;0.70;;;;;;;13.83;56.21;100764.34;10292078;28;20038;-86
2023/06/04 14:03:13;;;;;;;1.70;0.90;;;;;;;13.75;57.09;100775.25;10285957;28;20046;-84
2023/06/04 14:08:16;;;;;;;0.57;0.57;;;;;;;13.82;57.03;100768.22;10254676;29;20039;-85
2023/06/04 14:13:18;;;;;;;1.10;0.70;;;;;;;13.83;57.38;100782.84;10264231;28;20054;-86
2023/06/04 14:18:20;;;;;;;0.70;0.63;;;;;;;13.87;58.72;100786.63;10263514;28;20421;-86
2023/06/04 14:23:22;;;;;;;0.70;0.70;;;;;;;13.76;58.80;100796.19;10254035;28;20043;-83
2023/06/04 14:28:25;;;;;;;1.88;1.10;;;;;;;13.56;60.92;100792.63;10254789;28;20058;-86
2023/06/04 14:33:27;;;;;;;1.35;0.80;;;;;;;13.82;60.66;100795.81;10270241;28;20062;-86
2023/06/04 14:38:30;;;;;;;1.55;1.23;;;;;;;13.75;60.74;100802.84;10271261;28;20504;-86
2023/06/04 14:43:32;;;;;;;1.35;0.88;;;;;;;13.65;61.96;100800.22;10287701;29;20248;-85
2023/06/04 14:48:34;;;;;;;2.80;1.13;;;;;;;13.51;61.84;100814.72;10269732;28;20063;-86
2023/06/04 14:53:39;;;;;;;0.95;0.60;;;;;;;13.20;58.68;100808.81;10271142;29;20051;-86
2023/06/04 14:58:41;;;;;;;0.70;0.65;;;;;;;12.99;57.81;100815.63;10255255;29;20054;-84
2023/06/04 15:03:43;;;;;;;1.52;0.70;;;;;;;12.91;58.77;100816.28;10253765;28;20046;-85
2023/06/04 15:08:45;;;;;;;1.58;0.80;;;;;;;13.04;58.51;100821.09;10250450;28;20027;-88
2023/06/04 15:13:47;;;;;;;1.17;0.82;;;;;;;13.12;58.92;100822.38;10253762;29;20051;-85
2023/06/04 15:18:49;;;;;;;1.10;1.00;;;;;;;13.22;60.46;100806.56;10252047;29;20039;-84
2023/06/04 15:23:52;;;;;;;1.67;1.02;;;;;;;13.26;63.34;100809.56;10237907;29;20051;-86
2023/06/04 15:28:56;;;;;;;0.90;0.90;;;;;;;13.27;64.26;100814.78;10238127;29;20042;-86
2023/06/04 15:33:58;;;;;;;1.55;0.90;;;;;;;13.11;64.97;100809.72;10252765;29;20519;-86
2023/06/04 15:39:00;;;;;;;1.17;1.08;;;;;;;12.99;64.74;100808.19;10238071;29;20047;-87
2023/06/04 15:44:02;;;;;;;1.95;1.23;;;;;;;12.83;65.90;100803.94;10222860;29;20051;-87
2023/06/04 15:49:06;;;;;;;1.63;0.85;;;;;;;12.64;67.44;100803.06;10232726;28;20046;-87
2023/06/04 15:54:09;;;;;;;2.13;1.20;;;;;;;12.50;68.36;100789.19;10280545;28;20051;-84
2023/06/04 15:59:11;;;;;;;0.90;0.90;;;;;;;12.44;68.75;100781.25;10239285;28;20043;-84
2023/06/04 16:04:13;;;;;;;1.63;1.08;;;;;;;12.55;68.43;100780.03;10266798;29;20043;-83
2023/06/04 16:09:15;;;;;;;4.15;1.60;;;;;;;12.72;68.01;100780.41;10287939;28;20066;-83
2023/06/04 16:14:18;;;;;;;1.52;1.10;;;;;;;12.88;66.39;100795.66;10272209;28;20058;-87
2023/06/04 16:19:20;;;;;;;2.45;1.35;;;;;;;12.88;64.75;100803.91;10266040;29;20043;-85
2023/06/04 16:24:22;;;;;;;1.00;0.88;;;;;;;12.83;64.42;100809.47;10251882;29;20042;-85
2023/06/04 16:29:24;;;;;;;0.75;0.68;;;;;;;12.64;64.98;100825.09;10267757;29;20047;-85
2023/06/04 16:34:26;;;;;;;0.50;0.50;;;;;;;12.37;65.75;100825.63;10267009;29;20050;-86
2023/06/04 16:39:28;;;;;;;1.92;0.82;;;;;;;12.26;66.46;100827.63;10251260;29;20047;-86
2023/06/04 16:44:31;;;;;;;1.73;0.98;;;;;;;12.29;68.11;100834.47;10266576;28;20039;-87
2023/06/04 16:49:33;;;;;;;2.08;1.00;;;;;;;12.14;70.19;100840.09;10282713;29;20062;-88
2023/06/04 16:54:35;;;;;;;4.35;1.15;;;;;;;12.07;71.98;100848.69;10250973;29;20039;-85
2023/06/04 16:59:40;;;;;;;1.15;1.05;;;;;;;11.99;72.65;100844.63;10250989;29;20031;-86
2023/06/04 17:04:43;;;;;;;1.70;0.95;;;;;;;11.97;73.60;100857.00;10266148;29;20067;-87
2023/06/04 17:09:45;;;;;;;1.70;0.90;;;;;;;11.89;74.92;100860.38;10282024;29;20424;-87
2023/06/04 17:14:47;;;;;;;1.08;0.98;;;;;;;11.73;77.49;100856.84;10282529;29;20046;-86
2023/06/04 17:19:49;;;;;;;1.77;0.90;;;;;;;11.51;78.93;100859.16;10279395;29;20440;-88
2023/06/04 17:24:52;;;;;;;1.70;1.13;;;;;;;11.36;79.87;100858.13;10248684;28;20043;-86
2023/06/04 17:29:54;;;;;;;3.08;1.08;;;;;;;11.31;80.61;100860.91;10245147;28;20043;-91
2023/06/04 17:34:56;;;;;;;1.67;1.25;;;;;;;11.29;79.96;100851.31;10230602;28;20047;-88
2023/06/04 17:39:59;;;;;;;1.65;1.20;;;;;;;11.13;79.86;100843.13;10248951;28;20054;-87
2023/06/04 17:45:07;;;;;;;1.13;0.98;;;;;;;10.98;79.72;100847.81;10261982;29;20043;-85
2023/06/04 17:50:10;;;;;;;0.90;0.80;;;;;;;10.84;79.27;100855.81;10214575;29;20421;-87
2023/06/04 17:55:14;;;;;;;2.38;1.20;;;;;;;10.83;79.99;100855.00;10211611;29;20520;-88
2023/06/04 18:00:17;;;;;;;1.92;1.30;;;;;;;10.79;79.94;100848.41;10249496;29;20043;-87
2023/06/04 18:05:21;;;;;;;0.85;0.70;;;;;;;10.79;81.20;100847.59;10251635;29;20047;-85
2023/06/04 18:10:25;;;;;;;1.10;1.00;;;;;;;10.84;81.95;100845.66;10216372;29;20509;-87
2023/06/04 18:15:29;;;;;;;2.40;1.20;;;;;;;10.94;81.39;100855.81;10216798;29;20504;-86
2023/06/04 18:20:32;;;;;;;1.80;1.20;;;;;;;10.99;81.56;100847.53;10235436;29;20059;-89
2023/06/04 18:25:34;;;;;;;1.40;0.90;;;;;;;11.04;81.07;100850.25;10250332;29;20043;-87
2023/06/04 18:30:37;;;;;;;2.22;0.98;;;;;;;11.07;81.53;100854.38;10258742;28;20050;-86
2023/06/04 18:35:39;;;;;;;1.25;0.80;;;;;;;11.07;81.03;100848.88;10262341;28;20034;-90
2023/06/04 18:40:42;;;;;;;0.93;0.70;;;;;;;11.02;80.64;100849.72;10261985;28;20039;-87
2023/06/04 18:45:44;;;;;;;2.25;0.93;;;;;;;10.96;80.17;100845.34;10266337;28;20035;-87
2023/06/04 18:50:47;;;;;;;2.20;0.93;;;;;;;10.90;79.84;100851.94;10257660;28;20091;-86
2023/06/04 18:55:53;;;;;;;0.82;0.82;;;;;;;10.81;79.27;100856.38;10257498;28;20047;-88
2023/06/04 19:00:55;;;;;;;1.10;0.70;;;;;;;10.74;79.76;100855.81;10246854;29;20039;-85
2023/06/04 19:05:57;;;;;;;0.80;0.80;;;;;;;10.69;79.56;100859.41;10259982;28;20037;-84
2023/06/04 19:11:00;;;;;;;2.10;0.70;;;;;;;10.64;79.93;100861.34;10256960;28;20042;-88
2023/06/04 19:16:02;;;;;;;1.23;0.90;;;;;;;10.60;80.66;100858.34;10258072;29;20039;-85
2023/06/04 19:21:05;;;;;;;1.55;1.00;;;;;;;10.56;81.41;100865.44;10242647;28;20047;-87
2023/06/04 19:26:08;;;;;;;2.10;0.90;;;;;;;10.53;81.75;100863.25;10258582;28;20049;-85
2023/06/04 19:31:10;;;;;;;0.80;0.70;;;;;;;10.48;81.62;100864.09;10243045;28;20441;-85
2023/06/04 19:36:12;;;;;;;0.50;0.50;;;;;;;10.46;81.67;100868.22;10255600;29;20485;-88
2023/06/04 19:41:15;;;;;;;1.35;1.10;;;;;;;10.48;81.98;100868.75;10255251;28;20057;-85
2023/06/04 19:46:21;;;;;;;2.33;1.10;;;;;;;10.47;82.49;100861.63;10274229;28;20059;-87
2023/06/04 19:51:26;;;;;;;1.30;1.05;;;;;;;10.46;82.93;100852.56;10250327;28;20059;-83
2023/06/04 19:56:28;;;;;;;1.50;0.90;;;;;;;10.43;82.97;100855.03;10283810;29;20062;-86
2023/06/04 20:01:31;;;;;;;1.10;0.82;;;;;;;10.35;82.97;100853.66;10258165;29;20051;-89
2023/06/04 20:06:33;;;;;;;1.45;0.88;;;;;;;10.32;83.45;100853.38;10273115;29;20035;-86
2023/06/04 20:11:35;;;;;;;0.90;0.90;;;;;;;10.27;84.09;100856.97;10250099;29;20051;-88
2023/06/04 20:16:37;;;;;;;1.30;0.95;;;;;;;10.27;84.27;100852.31;10249219;29;20039;-86
2023/06/04 20:21:39;;;;;;;0.80;0.70;;;;;;;10.26;83.91;100852.56;10262724;28;20042;-88
2023/06/04 20:26:41;;;;;;;0.73;0.60;;;;;;;10.24;84.75;100852.03;10272347;29;20603;-87
2023/06/04 20:31:45;;;;;;;0.82;0.73;;;;;;;10.19;84.20;100854.72;10249307;28;20035;-88
2023/06/04 20:36:48;;;;;;;1.92;0.90;;;;;;;10.19;85.27;100855.53;10244178;29;20051;-85
2023/06/04 20:41:50;;;;;;;0.70;0.70;;;;;;;10.14;85.25;100858.28;10282850;28;20043;-87
2023/06/04 20:46:52;;;;;;;1.30;0.70;;;;;;;10.10;86.02;100864.59;10224573;29;20043;-85
2023/06/04 20:51:55;;;;;;;1.45;1.02;;;;;;;10.08;86.13;100864.06;10270695;29;20062;-87
2023/06/04 20:56:57;;;;;;;2.38;1.27;;;;;;;10.05;86.62;100862.66;10287729;28;20054;-89
2023/06/04 21:02:00;;;;;;;2.55;0.90;;;;;;;10.03;86.87;100864.03;10253515;29;20051;-89
2023/06/04 21:07:02;;;;;;;1.10;0.80;;;;;;;10.04;87.46;100868.41;10254414;28;20054;-86
2023/06/04 21:12:08;;;;;;;1.38;0.90;;;;;;;10.05;87.35;100868.13;10248803;28;20049;-86
2023/06/04 21:17:10;;;;;;;1.00;0.82;;;;;;;10.02;87.69;100865.13;10259096;28;20035;-87
2023/06/04 21:22:12;;;;;;;2.17;0.98;;;;;;;9.99;88.44;100861.00;10237790;28;20035;-86
2023/06/04 21:27:14;;;;;;;1.23;0.90;;;;;;;9.95;88.60;100863.47;10236847;28;20043;-88
2023/06/04 21:32:16;;;;;;;2.45;1.02;;;;;;;9.96;88.65;100867.84;10263219;28;20050;-88
2023/06/04 21:37:18;;;;;;;2.05;0.90;;;;;;;9.92;89.04;100860.47;10237496;29;20489;-87
2023/06/04 21:42:20;;;;;;;1.65;0.80;;;;;;;9.86;89.17;100865.09;10260934;28;20042;-86
2023/06/04 21:47:23;;;;;;;0.60;0.55;;;;;;;9.80;89.42;100865.34;10264714;28;20053;-84
2023/06/04 21:52:25;;;;;;;1.77;0.90;;;;;;;9.77;89.37;100860.41;10265778;28;20423;-84
2023/06/04 21:57:27;;;;;;;1.67;1.00;;;;;;;9.73;89.59;100862.88;10267017;28;20043;-86
2023/06/04 22:02:29;;;;;;;1.27;0.70;;;;;;;9.68;89.78;100865.59;10251961;28;20043;-86
2023/06/04 22:07:31;;;;;;;0.93;0.70;;;;;;;9.66;90.01;100867.78;10265904;29;20069;-84
2023/06/04 22:12:34;;;;;;;0.82;0.70;;;;;;;9.61;89.97;100863.13;10277945;28;20051;-87
2023/06/04 22:17:36;;;;;;;1.23;0.63;;;;;;;9.58;89.92;100862.84;10234073;29;20051;-87
2023/06/04 22:22:39;;;;;;;1.05;0.65;;;;;;;9.53;89.43;100862.78;10273931;29;20037;-84
2023/06/04 22:27:45;;;;;;;0.68;0.68;;;;;;;9.51;89.49;100870.47;10248004;28;20050;-84
2023/06/04 22:33:14;;;;;;;2.05;0.63;;;;;;;9.50;89.90;100864.16;10263097;29;20040;-85
2023/06/04 22:38:16;;;;;;;0.85;0.70;;;;;;;9.51;89.60;100870.47;10237783;29;20043;-84
2023/06/04 22:43:19;;;;;;;0.75;0.75;;;;;;;9.50;89.26;100869.63;10265723;29;20051;-84
2023/06/04 22:48:21;;;;;;;1.30;0.80;;;;;;;9.48;90.00;100871.81;10280798;28;20043;-87
2023/06/04 22:53:25;;;;;;;0.93;0.60;;;;;;;9.46;89.72;100882.22;10251925;29;20051;-87
2023/06/04 22:58:27;;;;;;;0.70;0.70;;;;;;;9.44;90.09;100880.84;10259130;29;20507;-87
2023/06/04 23:03:30;;;;;;;0.65;0.60;;;;;;;9.40;90.64;100887.97;10265040;29;20408;-88
2023/06/04 23:08:32;;;;;;;0.50;0.50;;;;;;;9.35;90.18;100884.09;10262014;29;20035;-85
2023/06/04 23:13:34;;;;;;;0.70;0.70;;;;;;;9.30;90.84;100886.81;10237365;28;20046;-86
2023/06/04 23:18:37;;;;;;;1.17;0.60;;;;;;;9.26;90.68;100885.72;10255580;28;20515;-86